createdAt,value
2019-01-20T00:00:16.105Z,85.30
2019-01-20T00:02:44.626Z,83.40
2019-01-20T00:05:14.177Z,82.60
2019-01-20T00:07:42.587Z,77.17
2019-01-20T00:10:12.710Z,83.10
2019-01-20T00:12:41.195Z,83.43
2019-01-20T00:15:12.596Z,88.40
2019-01-20T00:17:41.017Z,84.87
2019-01-20T00:20:09.663Z,85.67
2019-01-20T00:22:38.109Z,79.03
2019-01-20T00:25:08.912Z,76.63
2019-01-20T00:27:37.669Z,90.77
2019-01-20T00:30:14.939Z,86.97
2019-01-20T00:32:43.438Z,83.57
2019-01-20T00:35:11.916Z,83.30
2019-01-20T00:37:40.356Z,88.90
2019-01-20T00:40:11.855Z,84.50
2019-01-20T00:42:40.299Z,88.23
2019-01-20T00:45:11.842Z,78.50
2019-01-20T00:47:40.638Z,83.87
2019-01-20T00:50:11.078Z,78.83
2019-01-20T00:52:39.504Z,77.10
2019-01-20T00:55:11.240Z,85.13
2019-01-20T00:57:40.819Z,83.70
2019-01-20T01:00:15.745Z,85.23
2019-01-20T01:02:44.388Z,87.47
2019-01-20T01:05:13.796Z,84.03
2019-01-20T01:07:42.268Z,87.17
2019-01-20T01:10:10.931Z,90.47
2019-01-20T01:12:39.912Z,93.47
2019-01-20T01:15:10.564Z,87.80
2019-01-20T01:17:39.219Z,88.03
2019-01-20T01:20:13.035Z,77.90
2019-01-20T01:22:41.748Z,86.90
2019-01-20T01:25:11.728Z,86.10
2019-01-20T01:27:40.216Z,98.87
2019-01-20T01:30:14.360Z,96.63
2019-01-20T01:32:42.766Z,92.67
2019-01-20T01:35:11.208Z,86.97
2019-01-20T01:37:39.611Z,89.27
2019-01-20T01:40:10.960Z,83.97
2019-01-20T01:42:39.508Z,90.90
2019-01-20T01:45:11.228Z,92.83
2019-01-20T01:47:39.667Z,91.53
2019-01-20T01:50:09.449Z,93.17
2019-01-20T01:52:37.868Z,99.33
2019-01-20T01:55:08.335Z,91.13
2019-01-20T01:57:36.836Z,91.80
2019-01-20T02:00:11.713Z,101.70
2019-01-20T02:02:40.143Z,93.77
2019-01-20T02:05:09.776Z,94.07
2019-01-20T02:07:38.538Z,89.80
2019-01-20T02:10:10.099Z,99.13
2019-01-20T02:12:40.145Z,93.47
2019-01-20T02:15:10.816Z,88.40
2019-01-20T02:17:39.516Z,85.20
2019-01-20T02:20:11.347Z,86.53
2019-01-20T02:22:39.872Z,85.13
2019-01-20T02:25:08.403Z,85.90
2019-01-20T02:27:36.867Z,85.23
2019-01-20T02:30:11.308Z,89.53
2019-01-20T02:32:39.776Z,84.87
2019-01-20T02:35:08.363Z,83.60
2019-01-20T02:37:37.091Z,78.43
2019-01-20T02:40:08.693Z,84.70
2019-01-20T02:42:37.121Z,86.97
2019-01-20T02:45:08.071Z,89.53
2019-01-20T02:47:36.544Z,86.43
2019-01-20T02:50:08.125Z,86.20
2019-01-20T02:52:36.525Z,85.13
2019-01-20T02:55:06.411Z,84.37
2019-01-20T02:57:34.878Z,81.13
2019-01-20T03:00:06.785Z,83.67
2019-01-20T03:02:35.256Z,81.63
2019-01-20T03:05:05.033Z,80.47
2019-01-20T03:07:33.451Z,85.67
2019-01-20T03:10:01.893Z,81.43
2019-01-20T03:12:30.307Z,87.00
2019-01-20T03:14:58.740Z,81.13
2019-01-20T03:17:27.217Z,73.13
2019-01-20T03:19:55.651Z,78.57
2019-01-20T03:22:24.093Z,84.10
2019-01-20T03:24:52.523Z,85.97
2019-01-20T03:27:20.923Z,84.17
2019-01-20T03:29:49.360Z,79.13
2019-01-20T03:32:17.788Z,76.13
2019-01-20T03:34:46.250Z,87.33
2019-01-20T03:37:14.679Z,84.40
2019-01-20T03:39:43.128Z,83.00
2019-01-20T03:42:12.290Z,85.97
2019-01-20T03:44:40.875Z,86.97
2019-01-20T03:47:09.347Z,83.57
2019-01-20T03:49:38.053Z,78.70
2019-01-20T03:52:06.584Z,72.80
2019-01-20T03:54:35.063Z,89.23
2019-01-20T03:57:03.573Z,90.63
2019-01-20T03:59:32.004Z,81.00
2019-01-20T04:02:00.443Z,89.17
2019-01-20T04:04:28.894Z,92.10
2019-01-20T04:06:57.323Z,85.67
2019-01-20T04:09:25.850Z,82.00
2019-01-20T04:11:54.300Z,78.97
2019-01-20T04:14:22.787Z,81.63
2019-01-20T04:16:51.495Z,85.57
2019-01-20T04:19:19.931Z,80.53
2019-01-20T04:21:48.602Z,90.03
2019-01-20T04:24:17.043Z,80.90
2019-01-20T04:26:45.465Z,78.63
2019-01-20T04:29:13.933Z,78.67
2019-01-20T04:31:42.348Z,80.57
2019-01-20T04:34:10.769Z,83.40
2019-01-20T04:36:39.223Z,76.97
2019-01-20T04:39:07.839Z,80.77
2019-01-20T04:41:36.266Z,89.83
2019-01-20T04:44:04.851Z,79.80
2019-01-20T04:46:33.280Z,84.33
2019-01-20T04:49:01.737Z,87.90
2019-01-20T04:51:30.147Z,88.87
2019-01-20T04:53:58.595Z,100.37
2019-01-20T04:56:27.052Z,92.73
2019-01-20T04:58:55.501Z,87.97
2019-01-20T05:01:23.917Z,92.77
2019-01-20T05:03:52.437Z,86.73
2019-01-20T05:06:20.857Z,92.50
2019-01-20T05:08:49.306Z,86.90
2019-01-20T05:11:17.759Z,88.60
2019-01-20T05:13:46.170Z,83.63
2019-01-20T05:16:14.691Z,88.43
2019-01-20T05:18:43.118Z,84.93
2019-01-20T05:21:11.564Z,85.63
2019-01-20T05:23:39.987Z,96.13
2019-01-20T05:26:08.509Z,96.70
2019-01-20T05:28:37.186Z,89.93
2019-01-20T05:31:05.675Z,88.97
2019-01-20T05:33:34.098Z,89.53
2019-01-20T05:36:02.550Z,99.87
2019-01-20T05:38:31.007Z,93.50
2019-01-20T05:40:59.435Z,102.60
2019-01-20T05:43:27.858Z,88.23
2019-01-20T05:45:56.318Z,85.10
2019-01-20T05:48:24.776Z,93.23
2019-01-20T05:50:53.215Z,91.00
2019-01-20T05:53:21.666Z,94.90
2019-01-20T05:55:50.154Z,90.37
2019-01-20T05:58:18.863Z,84.90
2019-01-20T06:00:47.292Z,92.33
2019-01-20T06:03:15.746Z,105.60
2019-01-20T06:05:44.190Z,93.40
2019-01-20T06:08:12.635Z,98.10
2019-01-20T06:10:41.063Z,101.83
2019-01-20T06:13:09.564Z,94.47
2019-01-20T06:15:37.993Z,84.43
2019-01-20T06:18:06.863Z,92.20
2019-01-20T06:20:35.297Z,90.73
2019-01-20T06:23:03.779Z,86.00
2019-01-20T06:25:32.231Z,94.27
2019-01-20T06:28:00.661Z,101.97
2019-01-20T06:30:31.300Z,91.47
2019-01-20T06:32:59.726Z,101.03
2019-01-20T06:35:28.335Z,96.40
2019-01-20T06:37:56.764Z,93.77
2019-01-20T06:40:25.239Z,95.30
2019-01-20T06:43:01.286Z,92.77
2019-01-20T06:45:23.843Z,87.93
2019-01-20T06:47:52.296Z,92.63
2019-01-20T06:50:21.394Z,83.90
2019-01-20T06:52:49.806Z,90.87
2019-01-20T06:55:18.325Z,92.73
2019-01-20T06:57:46.771Z,85.93
2019-01-20T07:00:22.915Z,91.77
2019-01-20T07:02:51.406Z,90.67
2019-01-20T07:05:19.929Z,81.10
2019-01-20T07:07:48.506Z,91.47
2019-01-20T07:10:18.387Z,86.77
2019-01-20T07:12:46.952Z,85.67
2019-01-20T07:15:20.214Z,83.17
2019-01-20T07:17:48.890Z,85.17
2019-01-20T07:20:17.581Z,83.53
2019-01-20T07:22:46.001Z,83.77
2019-01-20T07:25:14.511Z,79.63
2019-01-20T07:27:42.975Z,78.00
2019-01-20T07:30:14.519Z,80.47
2019-01-20T07:32:43.046Z,79.03
2019-01-20T07:35:11.635Z,85.17
2019-01-20T07:37:40.075Z,83.23
2019-01-20T07:40:14.455Z,82.83
2019-01-20T07:42:42.970Z,82.40
2019-01-20T07:45:12.928Z,82.17
2019-01-20T07:47:41.384Z,81.60
2019-01-20T07:50:15.443Z,80.37
2019-01-20T07:52:43.896Z,86.07
2019-01-20T07:55:12.382Z,89.87
2019-01-20T07:57:40.831Z,88.83
2019-01-20T08:00:12.283Z,79.73
2019-01-20T08:02:40.707Z,89.40
2019-01-20T08:05:09.794Z,84.17
2019-01-20T08:07:38.215Z,79.00
2019-01-20T08:10:12.396Z,82.80
2019-01-20T08:12:40.823Z,82.83
2019-01-20T08:15:11.807Z,84.40
2019-01-20T08:17:40.235Z,81.50
2019-01-20T08:20:14.604Z,79.07
2019-01-20T08:22:43.052Z,82.17
2019-01-20T08:25:13.013Z,79.60
2019-01-20T08:27:41.551Z,82.57
2019-01-20T08:30:15.268Z,74.17
2019-01-20T08:32:43.763Z,78.13
2019-01-20T08:35:13.651Z,81.43
2019-01-20T08:37:42.223Z,77.43
2019-01-20T08:40:13.788Z,80.80
2019-01-20T08:42:42.216Z,83.63
2019-01-20T08:45:13.732Z,79.30
2019-01-20T08:47:42.491Z,78.33
2019-01-20T08:50:11.351Z,74.63
2019-01-20T08:52:39.859Z,84.73
2019-01-20T08:55:09.080Z,77.03
2019-01-20T08:57:37.519Z,77.60
2019-01-20T09:00:09.039Z,75.83
2019-01-20T09:02:37.467Z,73.13
2019-01-20T09:05:06.547Z,74.60
2019-01-20T09:07:35.047Z,72.83
2019-01-20T09:10:05.043Z,68.80
2019-01-20T09:12:33.884Z,69.33
2019-01-20T09:15:02.316Z,70.20
2019-01-20T09:17:30.763Z,77.30
2019-01-20T09:19:59.219Z,71.17
2019-01-20T09:22:27.635Z,85.63
2019-01-20T09:24:56.345Z,74.87
2019-01-20T09:27:24.800Z,77.27
2019-01-20T09:29:53.259Z,77.87
2019-01-20T09:32:21.686Z,71.70
2019-01-20T09:34:50.108Z,69.40
2019-01-20T09:37:18.561Z,62.27
2019-01-20T09:39:46.987Z,69.17
2019-01-20T09:42:15.451Z,68.70
2019-01-20T09:44:43.876Z,73.17
2019-01-20T09:47:12.339Z,89.07
2019-01-20T09:49:40.787Z,71.00
2019-01-20T09:52:09.208Z,66.37
2019-01-20T09:54:37.652Z,74.50
2019-01-20T09:57:06.167Z,64.30
2019-01-20T09:59:34.618Z,60.33
2019-01-20T10:02:03.083Z,60.47
2019-01-20T10:04:31.531Z,60.70
2019-01-20T10:06:59.979Z,66.27
2019-01-20T10:09:28.415Z,64.00
2019-01-20T10:11:56.887Z,61.60
2019-01-20T10:14:25.307Z,56.77
2019-01-20T10:16:53.767Z,66.97
2019-01-20T10:19:22.207Z,58.97
2019-01-20T10:21:50.648Z,59.53
2019-01-20T10:24:19.081Z,63.30
2019-01-20T10:26:47.533Z,56.77
2019-01-20T10:29:15.951Z,58.30
2019-01-20T10:31:44.387Z,52.60
2019-01-20T10:34:12.834Z,61.87
2019-01-20T10:36:41.298Z,56.67
2019-01-20T10:39:11.252Z,54.73
2019-01-20T10:41:39.676Z,58.73
2019-01-20T10:44:08.266Z,55.33
2019-01-20T10:46:36.744Z,56.13
2019-01-20T10:49:05.382Z,54.53
2019-01-20T10:51:33.898Z,52.80
2019-01-20T10:54:02.314Z,53.57
2019-01-20T10:56:30.758Z,59.37
2019-01-20T10:58:59.234Z,53.13
2019-01-20T11:01:27.720Z,50.70
2019-01-20T11:03:56.130Z,51.53
2019-01-20T11:06:24.584Z,55.57
2019-01-20T11:08:53.923Z,60.00
2019-01-20T11:11:22.391Z,56.73
2019-01-20T11:13:50.810Z,64.20
2019-01-20T11:16:19.488Z,67.83
2019-01-20T11:18:47.921Z,59.70
2019-01-20T11:21:16.451Z,57.90
2019-01-20T11:23:45.036Z,82.13
2019-01-20T11:26:13.472Z,85.60
2019-01-20T11:28:41.919Z,59.50
2019-01-20T11:31:10.435Z,62.23
2019-01-20T11:33:38.879Z,60.67
2019-01-20T11:36:07.323Z,61.77
2019-01-20T11:38:35.780Z,60.37
2019-01-20T11:41:04.278Z,48.80
2019-01-20T11:43:32.738Z,48.60
2019-01-20T11:46:01.195Z,44.97
2019-01-20T11:48:29.640Z,43.90
2019-01-20T11:50:58.066Z,45.73
2019-01-20T11:53:26.547Z,43.83
2019-01-20T11:55:54.965Z,38.63
2019-01-20T11:58:23.435Z,41.50
2019-01-20T12:00:52.280Z,38.83
2019-01-20T12:03:20.798Z,40.33
2019-01-20T12:05:49.291Z,41.27
2019-01-20T12:08:17.755Z,42.70
2019-01-20T12:10:46.263Z,44.30
2019-01-20T12:13:15.761Z,46.20
2019-01-20T12:15:44.273Z,39.40
2019-01-20T12:18:12.803Z,41.73
2019-01-20T12:20:41.303Z,39.40
2019-01-20T12:23:09.822Z,41.30
2019-01-20T12:25:38.274Z,41.17
2019-01-20T12:28:07.166Z,30.20
2019-01-20T12:30:37.928Z,30.00
2019-01-20T12:33:06.686Z,29.70
2019-01-20T12:35:35.575Z,36.57
2019-01-20T12:38:04.086Z,30.93
2019-01-20T12:40:38.272Z,32.47
2019-01-20T12:43:06.783Z,28.13
2019-01-20T12:45:35.238Z,31.53
2019-01-20T12:48:04.243Z,35.73
2019-01-20T12:50:32.687Z,26.67
2019-01-20T12:53:01.139Z,30.63
2019-01-20T12:55:29.799Z,29.23
2019-01-20T12:57:58.240Z,29.53
2019-01-20T13:00:26.973Z,40.17
2019-01-20T13:02:55.672Z,35.87
2019-01-20T13:05:24.119Z,35.83
2019-01-20T13:07:52.559Z,34.60
2019-01-20T13:10:21.542Z,31.70
2019-01-20T13:12:50.027Z,28.90
2019-01-20T13:15:21.067Z,28.97
2019-01-20T13:17:49.511Z,31.53
2019-01-20T13:20:22.340Z,30.93
2019-01-20T13:22:50.839Z,25.87
2019-01-20T13:25:21.615Z,30.43
2019-01-20T13:27:50.120Z,29.00
2019-01-20T13:30:21.199Z,37.07
2019-01-20T13:32:49.733Z,35.77
2019-01-20T13:35:19.316Z,39.47
2019-01-20T13:37:50.367Z,38.90
2019-01-20T13:40:36.743Z,41.10
2019-01-20T13:43:05.261Z,40.17
2019-01-20T13:45:33.778Z,38.67
2019-01-20T13:48:02.231Z,37.53
2019-01-20T13:50:30.754Z,37.00
2019-01-20T13:52:59.171Z,35.37
2019-01-20T13:55:27.602Z,37.73
2019-01-20T13:57:56.091Z,41.57
2019-01-20T14:00:26.487Z,43.33
2019-01-20T14:02:54.983Z,42.57
2019-01-20T14:05:23.486Z,47.03
2019-01-20T14:07:51.968Z,47.77
2019-01-20T14:10:24.856Z,49.57
2019-01-20T14:12:53.423Z,54.07
2019-01-20T14:15:21.919Z,53.87
2019-01-20T14:17:50.468Z,52.03
2019-01-20T14:20:26.445Z,55.70
2019-01-20T14:22:54.896Z,54.57
2019-01-20T14:25:28.105Z,57.27
2019-01-20T14:27:56.555Z,51.90
2019-01-20T14:30:30.442Z,56.20
2019-01-20T14:32:58.858Z,52.33
2019-01-20T14:35:27.435Z,48.83
2019-01-20T14:37:56.023Z,58.07
2019-01-20T14:40:25.307Z,55.97
2019-01-20T14:42:53.981Z,52.97
2019-01-20T14:45:22.743Z,55.43
2019-01-20T14:47:51.168Z,54.83
2019-01-20T14:50:27.446Z,56.13
2019-01-20T14:52:55.987Z,53.40
2019-01-20T14:55:24.979Z,53.87
2019-01-20T14:57:53.491Z,56.03
2019-01-20T15:00:27.780Z,56.90
2019-01-20T15:02:56.239Z,56.63
2019-01-20T15:05:24.812Z,55.63
2019-01-20T15:07:53.334Z,56.33
2019-01-20T15:10:21.851Z,57.57
2019-01-20T15:12:50.416Z,54.03
2019-01-20T15:15:21.768Z,54.97
2019-01-20T15:17:50.579Z,61.60
2019-01-20T15:20:19.125Z,60.97
2019-01-20T15:22:47.578Z,64.03
2019-01-20T15:25:18.080Z,60.57
2019-01-20T15:27:46.528Z,68.60
2019-01-20T15:30:20.804Z,66.93
2019-01-20T15:32:50.277Z,65.97
2019-01-20T15:35:18.879Z,65.97
2019-01-20T15:37:47.299Z,69.40
2019-01-20T15:40:20.829Z,67.90
2019-01-20T15:42:49.359Z,66.33
2019-01-20T15:45:20.322Z,75.70
2019-01-20T15:47:48.818Z,68.03
2019-01-20T15:50:19.765Z,68.43
2019-01-20T15:52:48.229Z,72.97
2019-01-20T15:55:16.739Z,76.20
2019-01-20T15:57:45.245Z,70.13
2019-01-20T16:00:25.469Z,74.03
2019-01-20T16:02:54.135Z,74.17
2019-01-20T16:05:23.401Z,75.27
2019-01-20T16:07:51.916Z,70.17
2019-01-20T16:10:20.412Z,76.03
2019-01-20T16:12:48.915Z,77.30
2019-01-20T16:15:24.794Z,78.90
2019-01-20T16:17:54.275Z,76.60
2019-01-20T16:20:23.258Z,74.33
2019-01-20T16:22:51.902Z,64.00
2019-01-20T16:25:26.199Z,72.03
2019-01-20T16:27:54.719Z,62.90
2019-01-20T16:30:25.774Z,68.83
2019-01-20T16:32:54.223Z,69.93
2019-01-20T16:35:23.304Z,62.87
2019-01-20T16:37:51.912Z,71.97
2019-01-20T16:40:22.683Z,66.30
2019-01-20T16:42:51.228Z,65.07
2019-01-20T16:45:22.280Z,73.03
2019-01-20T16:47:53.615Z,71.43
2019-01-20T16:50:24.204Z,69.50
2019-01-20T16:52:54.668Z,71.17
2019-01-20T16:55:22.874Z,75.27
2019-01-20T16:57:51.682Z,77.53
2019-01-20T17:00:22.702Z,75.47
2019-01-20T17:02:51.292Z,75.40
2019-01-20T17:05:19.813Z,76.63
2019-01-20T17:07:48.239Z,72.43
2019-01-20T17:10:21.527Z,75.07
2019-01-20T17:12:50.131Z,74.93
2019-01-20T17:15:26.444Z,151.50
2019-01-20T17:17:54.879Z,90.50
2019-01-20T17:20:23.618Z,91.50
2019-01-20T17:22:52.177Z,101.33
2019-01-20T17:25:20.605Z,92.43
2019-01-20T17:27:49.180Z,100.93
2019-01-20T17:30:23.385Z,107.80
2019-01-20T17:32:52.066Z,87.73
2019-01-20T17:35:20.522Z,104.13
2019-01-20T17:37:48.972Z,95.47
2019-01-20T17:40:19.955Z,102.63
2019-01-20T17:42:48.457Z,89.73
2019-01-20T17:45:22.506Z,106.97
2019-01-20T17:47:51.016Z,96.30
2019-01-20T17:50:24.683Z,125.97
2019-01-20T17:52:53.580Z,125.00
2019-01-20T17:55:22.005Z,122.00
2019-01-20T17:57:50.528Z,97.63
2019-01-20T18:00:29.047Z,118.87
2019-01-20T18:02:57.562Z,95.47
2019-01-20T18:05:26.239Z,108.37
2019-01-20T18:07:54.695Z,111.87
2019-01-20T18:10:23.148Z,136.10
2019-01-20T18:12:53.228Z,132.43
2019-01-20T18:15:23.640Z,113.27
2019-01-20T18:17:52.165Z,137.00
2019-01-20T18:20:23.703Z,113.77
2019-01-20T18:22:52.243Z,118.53
2019-01-20T18:25:21.555Z,117.67
2019-01-20T18:27:49.979Z,121.10
2019-01-20T18:30:21.040Z,119.63
2019-01-20T18:32:49.711Z,118.33
2019-01-20T18:35:18.303Z,117.27
2019-01-20T18:37:46.908Z,120.53
2019-01-20T18:40:17.272Z,109.80
2019-01-20T18:42:45.786Z,115.17
2019-01-20T18:45:16.379Z,119.27
2019-01-20T18:47:44.911Z,110.03
2019-01-20T18:50:16.415Z,100.07
2019-01-20T18:52:44.872Z,110.10
2019-01-20T18:55:15.331Z,101.60
2019-01-20T18:57:44.167Z,102.70
2019-01-20T19:00:21.279Z,110.27
2019-01-20T19:02:51.033Z,105.97
2019-01-20T19:05:19.578Z,101.90
2019-01-20T19:07:48.039Z,96.17
2019-01-20T19:10:18.974Z,102.13
2019-01-20T19:12:47.475Z,119.17
2019-01-20T19:15:17.762Z,128.03
2019-01-20T19:17:46.334Z,111.17
2019-01-20T19:20:25.230Z,122.63
2019-01-20T19:22:55.828Z,122.63
2019-01-20T19:25:24.523Z,115.43
2019-01-20T19:27:53.036Z,132.80
2019-01-20T19:30:32.511Z,124.90
2019-01-20T19:33:01.025Z,109.30
2019-01-20T19:35:29.532Z,118.50
2019-01-20T19:37:58.271Z,120.63
2019-01-20T19:40:26.790Z,118.37
2019-01-20T19:42:55.223Z,116.53
2019-01-20T19:45:23.881Z,213.77
2019-01-20T19:47:52.484Z,136.57
2019-01-20T19:50:21.594Z,120.50
2019-01-20T19:52:50.098Z,348.17
2019-01-20T19:55:28.944Z,137.43
2019-01-20T19:57:57.485Z,162.13
2019-01-20T20:00:29.713Z,141.00
2019-01-20T20:02:58.174Z,141.87
2019-01-20T20:05:26.843Z,118.23
2019-01-20T20:07:56.235Z,121.67
2019-01-20T20:10:26.439Z,133.00
2019-01-20T20:12:56.174Z,133.33
2019-01-20T20:15:26.192Z,141.20
2019-01-20T20:17:54.756Z,141.80
2019-01-20T20:20:23.188Z,138.30
2019-01-20T20:22:51.705Z,137.07
2019-01-20T20:25:21.868Z,133.77
2019-01-20T20:27:50.670Z,140.40
2019-01-20T20:30:21.450Z,142.30
2019-01-20T20:32:49.970Z,134.97
2019-01-20T20:35:18.469Z,127.67
2019-01-20T20:37:47.008Z,145.80
2019-01-20T20:40:17.952Z,181.83
2019-01-20T20:42:46.375Z,112.03
2019-01-20T20:45:17.537Z,132.23
2019-01-20T20:47:46.203Z,133.47
2019-01-20T20:50:16.101Z,183.43
2019-01-20T20:52:46.148Z,122.13
2019-01-20T20:55:15.003Z,134.33
2019-01-20T20:57:43.509Z,124.57
2019-01-20T21:00:17.931Z,125.57
2019-01-20T21:02:46.367Z,119.37
2019-01-20T21:05:14.867Z,120.10
2019-01-20T21:07:43.335Z,120.67
2019-01-20T21:10:14.423Z,108.07
2019-01-20T21:12:42.871Z,116.47
2019-01-20T21:15:13.977Z,120.83
2019-01-20T21:17:48.165Z,132.30
2019-01-20T21:20:15.999Z,121.27
2019-01-20T21:22:44.502Z,132.77
2019-01-20T21:25:13.107Z,121.03
2019-01-20T21:27:41.703Z,140.43
2019-01-20T21:30:13.284Z,133.13
2019-01-20T21:32:41.750Z,122.57
2019-01-20T21:35:10.307Z,124.50
2019-01-20T21:37:38.759Z,121.43
2019-01-20T21:40:10.573Z,135.33
2019-01-20T21:42:39.024Z,131.60
2019-01-20T21:45:09.723Z,131.53
2019-01-20T21:47:38.150Z,135.97
2019-01-20T21:50:09.671Z,131.40
2019-01-20T21:52:38.174Z,116.53
2019-01-20T21:55:06.759Z,118.97
2019-01-20T21:57:35.175Z,99.67
2019-01-20T22:00:06.327Z,125.67
2019-01-20T22:02:35.051Z,112.73
2019-01-20T22:05:04.023Z,125.67
2019-01-20T22:07:32.499Z,116.87
2019-01-20T22:10:00.919Z,119.70
2019-01-20T22:12:29.591Z,123.83
2019-01-20T22:14:58.034Z,113.43
2019-01-20T22:17:26.464Z,115.50
2019-01-20T22:19:54.988Z,120.50
2019-01-20T22:22:23.428Z,117.47
2019-01-20T22:24:51.895Z,140.67
2019-01-20T22:27:20.320Z,126.77
2019-01-20T22:29:48.756Z,120.60
2019-01-20T22:32:19.899Z,115.20
2019-01-20T22:34:48.391Z,114.80
2019-01-20T22:37:16.835Z,106.17
2019-01-20T22:39:45.300Z,119.70
2019-01-20T22:42:13.727Z,105.10
2019-01-20T22:44:42.158Z,101.07
2019-01-20T22:47:10.628Z,106.90
2019-01-20T22:49:39.067Z,99.87
2019-01-20T22:52:07.571Z,114.40
2019-01-20T22:54:36.280Z,98.40
2019-01-20T22:57:07.421Z,102.93
2019-01-20T22:59:35.869Z,118.90
2019-01-20T23:02:04.703Z,101.20
2019-01-20T23:04:33.231Z,109.43
2019-01-20T23:07:01.721Z,103.07
2019-01-20T23:09:30.219Z,130.43
2019-01-20T23:11:58.798Z,108.17
2019-01-20T23:14:27.410Z,104.33
2019-01-20T23:16:55.847Z,117.70
2019-01-20T23:19:24.312Z,105.23
2019-01-20T23:21:52.748Z,102.40
2019-01-20T23:24:21.202Z,110.73
2019-01-20T23:26:49.657Z,119.70
2019-01-20T23:29:18.092Z,114.13
2019-01-20T23:31:46.539Z,112.30
2019-01-20T23:34:14.963Z,114.33
2019-01-20T23:36:43.423Z,107.73
2019-01-20T23:39:11.867Z,113.27
2019-01-20T23:41:40.321Z,124.77
2019-01-20T23:44:08.758Z,124.87
2019-01-20T23:46:37.213Z,118.23
2019-01-20T23:49:05.634Z,114.03
2019-01-20T23:51:34.092Z,107.53
2019-01-20T23:54:02.530Z,122.80
2019-01-20T23:56:30.951Z,113.33
2019-01-20T23:58:59.411Z,113.43
